De Kooy Airfield

Airport
ICAO code: 
EHKD
IATA Code: 
DHR
Summary
ICAO Region: 
EUR
Territory: 
Location: 
Den Helder, Noord-Holland
Serving: 
De Kooy
Elevation: 
3 ft
Coordinates: 
Aerial View: 
52° 55' 24.071" N, 4° 46' 50.25" E
Metar
Observation
EHKD 020903Z AUTO 02012KT 320V070 9999 -RA FEW012 BKN015CB BKN019 03/01 Q1001 WHT TEMPO 3000 SHRAGS FEW15CB SCT020 BKN030
Station
De Kooy
Date/Time
2021-12-02 09:03:00
Wind direction
20°
Wind speed
12 kts
Lowest cloud amount
few clouds
Temperature
3°C
Dew point
1°C
Humidity
86%
QNH
1001 hPa
Weather condition
light rain

De Kooy Airfield is an airfield 2.9 nm south of Den Helder, the Netherlands, named after the nearby hamlet De Kooy. It serves as both a civilian airport under the name Den Helder Airport and a naval airport under the name Maritiem Vliegkamp De Kooy.

Climatology

Temperate Marine climate/Oceanic climate (Köppen climate classification Cfb). Moderately cool summer and comparatively warm winter with a temperature range of only 14°C. Prevailing south-westerly winds from the Atlantic Ocean.

Runways

Designator Length Width Surface Rops
4/22 1275 30 CON No/No
Airport map: 
Aerial View: 

Accidents and Serious Incidents at or in the vicinity of EHKD

SKYbrary Partners:

Safety knowledge contributed by: